CheckWX is a tool to help pilots better visualize weather data.  It is not intended as a substitute for an official pre-flight weather briefing.

10:56:34 UTC

KDSM TAF
Des Moines International Airport
Des Moines, Iowa, USA
KDSM 140535Z 1406/1506 VRB03KT P6SM SKC FM141600 16008KT P6SM SKC

Oct-14@
06:00 UTC

Oct-14 @ 06:00 UTC

Oct-14@
16:00 UTC

Oct-14 @ 16:00 UTC

KDSM 140535Z 1406/1506 VRB03KT P6SM SKC
Wind
  • Variable at 3 KTS
Cloud Levels
  • Clear skies

Oct-14@
16:00 UTC

Oct-14 @ 16:00 UTC

Oct-15@
06:00 UTC

Oct-15 @ 06:00 UTC

FM141600 16008KT P6SM SKC

From

From Standard forecast or significant change

Wind
  • 160° at 8 KTS
Cloud Levels
  • Clear skies